West Warwick, Rhode Island
Current Conditions -  °F | °C
As of 1:51 PM on Saturday 25 Oct 2014 (Local Time) from KPVD Reporting Station
Few Clouds Few Clouds  
Wind Chill: 65°   Ceiling: Unl
Heat Index: 65°   Visibility: 10mi
Dew Point: 38°   Wind: 13mph
Humidity: 37%   Direction: 250°WSW
Pressure: 29.68"   Gusts: NA
Location:  41.71°N, 71.52°W
Report Text: KPVD 251751Z 25011KT 10SM FEW250 18/03 A2968 RMK AO2 SLP049 T01830033 10189 20078 56027
Loading
Personal Weather Stations






























Interactive Weather Map
Tropical Storm Tracking
New forecast layout! Learn more

10-Day Weather Forecast

Advertisements
Track Severe Weather on mobile